Dover, Delaware
Current Conditions -  °F | °C
As of 1:58 AM on Sunday 21 Dec 2014 (Local Time) from KDOV Reporting Station
Clear Clear  
Wind Chill: 27°   Ceiling: Unl
Heat Index: 27°   Visibility: 10mi
Dew Point: 25°   Wind: 2mph
Humidity: 92%   Direction: 280°W
Pressure: 30.28"   Gusts: NA
Location:  39.16°N, 75.52°W
Report Text: KDOV 210658Z AUTO 28002KT 10SM CLR M03/M04 A3028 RMK AO2 SLP257 T10261037
Loading
Personal Weather Stations






























Interactive Weather Map New forecast layout! Learn more

10-Day Weather Forecast

Advertisements
Track Severe Weather on mobile